Main page
METAR-TAF:

METAR-TAF

Airports :

Copenhagen, Denmark

Copenhagen Airport

latitude: 55-37N, longitude: 012-39E, elevation: 5 m

Current weather observation

The report was made 37 minutes ago, at 08:20 UTC
Wind 7 kt from the Southeast
Temperature 7°C
Humidity 76%
Pressure 1024 hPa
Visibility 10 km or more
Few clouds at a height of 1600 ft

METAR: EKCH 300820Z 14007KT 9999 FEW016 07/03 Q1024 NOSIG

Time: 10:57 (08:57 UTC)

Forecast

The report was made 4 hours and 5 minutes ago, at 04:52 UTC
Forecast valid from 30 at 06 UTC to 01 at 06 UTC
Wind 5 kt from the East
Visibility 10 km or more
Few clouds at a height of 2500 ft
Becoming
from 30 at 07 UTC to 30 at 10 UTC
Wind 15 kt from the South/Southeast
Becoming
from 30 at 18 UTC to 30 at 21 UTC
Wind 15 kt from the East

TAF: EKCH 300452Z 3006/0106 09005KT 9999 FEW025 BECMG 3007/3010 15015KT BECMG 3018/3021 09015KT

Weather observations and forecasts of more than 4000 airports (METAR and TAF reports).

The available stations are represented by yellow and red dots on the map.

Hover mouse over dot to see the name of the station.

Then click to see weather observations and forecasts.

To change the map : click on the green buttons with a black cross to zoom in, on the green button with a dash to zoom out, or on the green arrows for adjacent maps.


METAR-TAF: